createdAt,value
2017-09-24T00:00:40.325Z,76.15
2017-09-24T00:01:50.664Z,76.15
2017-09-24T00:03:00.700Z,75.93
2017-09-24T00:04:11.030Z,75.96
2017-09-24T00:05:28.959Z,75.87
2017-09-24T00:06:39.306Z,76.06
2017-09-24T00:07:49.672Z,76.15
2017-09-24T00:09:00.010Z,75.87
2017-09-24T00:10:10.361Z,75.87
2017-09-24T00:11:20.747Z,75.87
2017-09-24T00:12:31.083Z,75.96
2017-09-24T00:13:41.124Z,76.06
2017-09-24T00:14:51.477Z,75.87
2017-09-24T00:16:01.813Z,75.87
2017-09-24T00:17:12.149Z,75.77
2017-09-24T00:18:22.489Z,75.96
2017-09-24T00:19:32.838Z,76.15
2017-09-24T00:20:43.189Z,75.77
2017-09-24T00:21:53.521Z,76.25
2017-09-24T00:23:03.868Z,75.96
2017-09-24T00:24:13.896Z,76.25
2017-09-24T00:25:24.233Z,76.35
2017-09-24T00:26:33.942Z,75.77
2017-09-24T00:27:44.275Z,76.35
2017-09-24T00:28:54.609Z,76.44
2017-09-24T00:30:03.994Z,75.87
2017-09-24T00:31:14.328Z,75.77
2017-09-24T00:32:24.689Z,75.96
2017-09-24T00:33:35.049Z,76.12
2017-09-24T00:34:45.437Z,76.15
2017-09-24T00:35:55.775Z,76.31
2017-09-24T00:37:06.111Z,76.44
2017-09-24T00:38:16.463Z,76.15
2017-09-24T00:39:26.798Z,76.35
2017-09-24T00:40:37.186Z,76.4
2017-09-24T00:41:47.524Z,76.31
2017-09-24T00:42:57.878Z,76.25
2017-09-24T00:44:07.911Z,76.35
2017-09-24T00:45:18.273Z,76.44
2017-09-24T00:46:28.344Z,76.12
2017-09-24T00:47:38.071Z,76.35
2017-09-24T00:48:48.417Z,76.35
2017-09-24T00:49:58.439Z,76.44
2017-09-24T00:51:08.795Z,76.15
2017-09-24T00:52:19.143Z,76.15
2017-09-24T00:53:29.489Z,76.44
2017-09-24T00:54:39.836Z,76.35
2017-09-24T00:55:50.283Z,76.4
2017-09-24T00:57:00.633Z,76.44
2017-09-24T00:58:11.023Z,76.44
2017-09-24T00:59:21.370Z,76.4
2017-09-24T01:00:31.396Z,76.44
2017-09-24T01:01:41.732Z,76.44
2017-09-24T01:02:52.228Z,76.35
2017-09-24T01:04:02.537Z,76.31
2017-09-24T01:05:12.888Z,76.35
2017-09-24T01:06:23.233Z,76.35
2017-09-24T01:07:33.246Z,76.35
2017-09-24T01:08:43.597Z,76.35
2017-09-24T01:09:53.950Z,76.44
2017-09-24T01:11:03.980Z,76.35
2017-09-24T01:12:14.318Z,76.35
2017-09-24T01:13:24.661Z,76.15
2017-09-24T01:14:35.012Z,76.44
2017-09-24T01:15:45.048Z,76.44
2017-09-24T01:16:54.759Z,76.35
2017-09-24T01:18:05.089Z,76.25
2017-09-24T01:19:15.114Z,76.44
2017-09-24T01:20:25.451Z,76.15
2017-09-24T01:21:35.839Z,76.15
2017-09-24T01:22:46.225Z,76.15
2017-09-24T01:23:56.562Z,76.35
2017-09-24T01:25:06.285Z,76.15
2017-09-24T01:26:16.621Z,76.25
2017-09-24T01:27:26.971Z,76.35
2017-09-24T01:28:37.301Z,76.44
2017-09-24T01:29:47.639Z,76.31
2017-09-24T01:30:57.967Z,76.31
2017-09-24T01:32:08.555Z,76.35
2017-09-24T01:33:18.571Z,76.35
2017-09-24T01:34:28.917Z,76.35
2017-09-24T01:35:39.254Z,76.31
2017-09-24T01:36:49.586Z,76.4
2017-09-24T01:37:59.608Z,76.25
2017-09-24T01:39:09.671Z,76.31
2017-09-24T01:40:19.074Z,75.93
2017-09-24T01:41:29.102Z,76.31
2017-09-24T01:42:39.133Z,76.4
2017-09-24T01:43:49.472Z,76.31
2017-09-24T01:44:59.822Z,76.4
2017-09-24T01:46:09.855Z,76.4
2017-09-24T01:47:20.204Z,76.31
2017-09-24T01:48:30.456Z,76.31
2017-09-24T01:49:40.814Z,76.31
2017-09-24T01:50:50.589Z,76.4
2017-09-24T01:52:00.605Z,76.31
2017-09-24T01:53:10.950Z,75.73
2017-09-24T01:54:21.302Z,76.02
2017-09-24T01:55:31.686Z,76.02
2017-09-24T01:56:42.143Z,75.93
2017-09-24T01:57:51.850Z,75.93
2017-09-24T01:59:02.201Z,75.83
2017-09-24T02:00:12.241Z,75.73
2017-09-24T02:01:21.944Z,75.54
2017-09-24T02:02:32.026Z,75.73
2017-09-24T02:03:42.401Z,75.64
2017-09-24T02:04:52.418Z,75.45
2017-09-24T02:06:02.449Z,75.64
2017-09-24T02:07:12.788Z,75.64
2017-09-24T02:08:23.179Z,75.54
2017-09-24T02:09:33.520Z,75.64
2017-09-24T02:10:43.857Z,75.64
2017-09-24T02:11:54.224Z,75.54
2017-09-24T02:13:04.571Z,75.35
2017-09-24T02:14:14.912Z,75.7
2017-09-24T02:15:25.253Z,75.31
2017-09-24T02:16:34.952Z,75.41
2017-09-24T02:17:44.974Z,75.7
2017-09-24T02:18:55.321Z,75.7
2017-09-24T02:20:05.371Z,75.41
2017-09-24T02:21:15.717Z,75.7
2017-09-24T02:22:25.732Z,76.08
2017-09-24T02:23:35.754Z,75.51
2017-09-24T02:24:46.173Z,75.89
2017-09-24T02:25:56.521Z,75.79
2017-09-24T02:27:06.865Z,75.7
2017-09-24T02:28:17.207Z,75.89
2017-09-24T02:29:27.544Z,75.79
2017-09-24T02:30:37.568Z,75.89
2017-09-24T02:31:47.653Z,75.79
2017-09-24T02:32:57.675Z,75.98
2017-09-24T02:34:08.007Z,75.98
2017-09-24T02:35:18.029Z,76.12
2017-09-24T02:36:28.071Z,75.73
2017-09-24T02:37:38.103Z,76.31
2017-09-24T02:38:48.440Z,76.4
2017-09-24T02:39:58.782Z,76.4
2017-09-24T02:41:09.133Z,76.4
2017-09-24T02:42:19.476Z,76.4
2017-09-24T02:43:29.506Z,76.4
2017-09-24T02:44:39.845Z,76.31
2017-09-24T02:45:50.198Z,76.12
2017-09-24T02:47:00.548Z,76.12
2017-09-24T02:48:10.890Z,76.31
2017-09-24T02:49:21.282Z,76.31
2017-09-24T02:50:31.622Z,76.31
2017-09-24T02:51:41.390Z,76.4
2017-09-24T02:52:51.742Z,76.12
2017-09-24T02:54:01.766Z,76.4
2017-09-24T02:55:12.154Z,76.31
2017-09-24T02:56:22.503Z,76.4
2017-09-24T02:57:32.849Z,76.31
2017-09-24T02:58:43.180Z,76.21
2017-09-24T02:59:53.521Z,76.31
2017-09-24T03:01:03.574Z,76.31
2017-09-24T03:02:13.595Z,76.31
2017-09-24T03:33:34.672Z,73.32
2017-09-24T03:34:44.680Z,73.16
2017-09-24T03:35:54.693Z,74.08
2017-09-24T03:37:05.033Z,74.88
2017-09-24T03:38:15.060Z,75.54
2017-09-24T03:39:25.446Z,75.93
2017-09-24T03:40:35.154Z,76.5
2017-09-24T03:41:45.490Z,76.98
2017-09-24T03:42:55.846Z,77.08
2017-09-24T03:44:05.865Z,76.98
2017-09-24T03:45:15.941Z,77.4
2017-09-24T03:46:26.273Z,77.01
2017-09-24T03:47:36.858Z,77.11
2017-09-24T03:48:46.885Z,77.06
2017-09-24T03:49:57.219Z,76.86
2017-09-24T03:51:07.615Z,77.06
2017-09-24T03:52:17.626Z,76.77
2017-09-24T03:53:27.333Z,76.81
2017-09-24T03:54:37.669Z,77.19
2017-09-24T03:55:47.698Z,76.42
2017-09-24T03:56:57.782Z,76.9
2017-09-24T03:58:08.113Z,76.9
2017-09-24T03:59:18.470Z,76.71
2017-09-24T04:00:28.808Z,76.84
2017-09-24T04:01:39.184Z,76.27
2017-09-24T04:02:49.807Z,76.08
2017-09-24T04:04:00.150Z,75.98
2017-09-24T04:05:10.504Z,76.08
2017-09-24T04:06:20.836Z,76.27
2017-09-24T04:07:31.172Z,76.46
2017-09-24T04:08:41.522Z,76.31
2017-09-24T04:09:51.538Z,76.21
2017-09-24T04:11:01.545Z,76.4
2017-09-24T04:12:11.572Z,76.31
2017-09-24T04:13:21.605Z,76.4
2017-09-24T04:14:31.984Z,76.4
2017-09-24T04:15:42.322Z,76.21
2017-09-24T04:16:52.667Z,76.4
2017-09-24T04:18:02.995Z,76.31
2017-09-24T04:19:13.328Z,76.21
2017-09-24T04:20:23.660Z,76.31
2017-09-24T04:21:34.010Z,76.31
2017-09-24T04:22:44.341Z,76.21
2017-09-24T04:23:54.378Z,76.4
2017-09-24T04:25:04.716Z,76.5
2017-09-24T04:26:15.119Z,76.21
2017-09-24T04:27:25.465Z,76.31
2017-09-24T04:28:35.157Z,76.21
2017-09-24T04:29:45.517Z,76.4
2017-09-24T04:30:55.861Z,76.21
2017-09-24T04:32:06.258Z,76.31
2017-09-24T04:33:16.595Z,76.31
2017-09-24T04:34:26.937Z,76.5
2017-09-24T04:35:36.956Z,76.21
2017-09-24T04:36:47.304Z,76.12
2017-09-24T04:37:57.636Z,76.31
2017-09-24T04:39:07.980Z,76.31
2017-09-24T04:40:18.335Z,76.21
2017-09-24T04:41:28.680Z,76.02
2017-09-24T04:42:38.694Z,76.31
2017-09-24T04:43:49.080Z,76.02
2017-09-24T04:44:59.101Z,75.93
2017-09-24T04:46:09.131Z,76.02
2017-09-24T04:47:19.461Z,76.02
2017-09-24T04:48:29.466Z,76.4
2017-09-24T04:49:39.819Z,76.4
2017-09-24T04:50:49.854Z,76.21
2017-09-24T04:51:59.876Z,76.21
2017-09-24T04:53:10.227Z,76.21
2017-09-24T04:54:20.570Z,76.5
2017-09-24T04:55:30.952Z,76.12
2017-09-24T04:56:40.993Z,76.5
2017-09-24T04:57:51.019Z,76.4
2017-09-24T04:59:01.351Z,76.31
2017-09-24T05:00:11.732Z,76.21
2017-09-24T05:01:21.799Z,76.21
2017-09-24T05:02:32.138Z,76.21
2017-09-24T05:03:42.464Z,76.31
2017-09-24T05:04:52.815Z,76.21
2017-09-24T05:06:02.844Z,76.31
2017-09-24T05:07:13.190Z,76.31
2017-09-24T05:08:23.531Z,76.31
2017-09-24T05:09:33.557Z,76.4
2017-09-24T05:10:43.923Z,76.44
2017-09-24T05:11:54.251Z,76.15
2017-09-24T05:13:04.648Z,76.35
2017-09-24T05:14:14.989Z,76.44
2017-09-24T05:15:25.015Z,76.44
2017-09-24T05:16:35.367Z,75.87
2017-09-24T05:17:45.713Z,76.35
2017-09-24T05:18:56.104Z,76.25
2017-09-24T05:20:06.439Z,76.64
2017-09-24T05:21:16.466Z,76.54
2017-09-24T05:22:26.811Z,76.35
2017-09-24T05:23:37.185Z,76.25
2017-09-24T05:24:47.205Z,76.25
2017-09-24T05:25:57.546Z,76.25
2017-09-24T05:27:07.881Z,76.35
2017-09-24T05:28:18.227Z,76.25
2017-09-24T05:29:28.557Z,76.35
2017-09-24T05:30:38.574Z,76.35
2017-09-24T05:31:48.920Z,76.35
2017-09-24T05:32:59.262Z,76.15
2017-09-24T05:34:09.304Z,76.15
2017-09-24T05:35:19.648Z,76.31
2017-09-24T05:36:29.989Z,76.44
2017-09-24T05:37:40.330Z,75.87
2017-09-24T05:38:50.044Z,76.35
2017-09-24T05:40:00.393Z,76.35
2017-09-24T05:41:10.114Z,75.96
2017-09-24T05:42:20.458Z,75.77
2017-09-24T05:43:30.807Z,75.87
2017-09-24T05:44:41.154Z,75.77
2017-09-24T05:45:51.506Z,76.15
2017-09-24T05:47:01.883Z,75.77
2017-09-24T05:48:12.243Z,75.77
2017-09-24T05:49:22.602Z,76.25
2017-09-24T05:50:32.934Z,75.77
2017-09-24T05:51:43.280Z,75.77
2017-09-24T05:52:53.331Z,76.54
2017-09-24T05:54:03.736Z,76.06
2017-09-24T05:55:14.067Z,75.96
2017-09-24T05:56:24.418Z,75.96
2017-09-24T05:57:34.751Z,75.96
2017-09-24T05:58:45.087Z,75.9
2017-09-24T05:59:55.431Z,75.81
2017-09-24T06:01:05.539Z,75.81
2017-09-24T06:02:15.886Z,75.52
2017-09-24T06:03:26.222Z,75.62
2017-09-24T06:04:36.562Z,76.19
2017-09-24T06:05:46.940Z,75.9
2017-09-24T06:06:57.270Z,76.19
2017-09-24T06:08:06.982Z,76
2017-09-24T06:09:17.021Z,76
2017-09-24T06:10:27.381Z,76
2017-09-24T06:11:37.381Z,76
2017-09-24T06:12:47.729Z,76.29
2017-09-24T06:13:57.754Z,75.81
2017-09-24T06:15:08.117Z,75.81
2017-09-24T06:16:18.483Z,75.43
2017-09-24T06:17:28.861Z,75.43
2017-09-24T06:18:39.201Z,75.71
2017-09-24T06:19:49.548Z,75.52
2017-09-24T06:20:59.895Z,75.95
2017-09-24T06:22:09.609Z,76
2017-09-24T06:23:20.004Z,75.81
2017-09-24T06:24:30.040Z,75.85
2017-09-24T06:25:40.396Z,75.95
2017-09-24T06:26:50.733Z,76.04
2017-09-24T06:28:00.774Z,75.75
2017-09-24T06:29:10.823Z,76.04
2017-09-24T06:30:21.184Z,76.04
2017-09-24T06:31:30.907Z,75.46
2017-09-24T06:32:41.251Z,75.85
2017-09-24T06:33:51.269Z,75.46
2017-09-24T06:35:01.372Z,75.65
2017-09-24T06:36:11.717Z,75.75
2017-09-24T06:37:21.431Z,75.56
2017-09-24T06:38:31.777Z,75.56
2017-09-24T06:39:42.147Z,75.85
2017-09-24T06:40:51.910Z,75.75
2017-09-24T06:42:02.248Z,75.65
2017-09-24T06:43:12.608Z,75.46
2017-09-24T06:44:22.646Z,75.08
2017-09-24T06:45:33.032Z,75.27
2017-09-24T06:46:43.123Z,75.21
2017-09-24T06:47:53.187Z,75.31
2017-09-24T06:49:03.519Z,75.79
2017-09-24T06:50:13.868Z,75.4
2017-09-24T06:51:23.902Z,75.7
2017-09-24T06:52:33.971Z,75.7
2017-09-24T06:53:44.320Z,75.21
2017-09-24T06:54:54.355Z,75.21
2017-09-24T06:56:04.694Z,75.21
2017-09-24T06:57:15.235Z,75.12
2017-09-24T06:58:25.611Z,75.4
2017-09-24T06:59:35.958Z,75.4
2017-09-24T07:00:46.321Z,75.4
2017-09-24T07:01:56.366Z,75.5
2017-09-24T07:03:06.713Z,75.25
2017-09-24T07:04:17.108Z,75.21
2017-09-24T07:05:27.133Z,75.31
2017-09-24T07:06:37.155Z,75.02
2017-09-24T07:07:47.184Z,75.21
2017-09-24T07:08:57.535Z,75.06
2017-09-24T07:10:07.906Z,74.87
2017-09-24T07:11:18.261Z,74.48
2017-09-24T07:12:28.607Z,74.68
2017-09-24T07:13:38.956Z,74.39
2017-09-24T07:14:49.315Z,74.71
2017-09-24T07:15:59.662Z,74.71
2017-09-24T07:17:09.686Z,74.62
2017-09-24T07:18:20.047Z,74.62
2017-09-24T07:19:30.375Z,74.81
2017-09-24T07:20:40.720Z,74.43
2017-09-24T07:21:51.117Z,74.71
2017-09-24T07:23:01.179Z,75.48
2017-09-24T07:24:11.217Z,75.38
2017-09-24T07:25:21.567Z,75.29
2017-09-24T07:26:31.919Z,75.1
2017-09-24T07:27:42.320Z,75.1
2017-09-24T07:28:52.682Z,75.48
2017-09-24T07:30:02.731Z,75.29
2017-09-24T07:31:13.091Z,75.29
2017-09-24T07:32:23.442Z,75.48
2017-09-24T07:33:33.800Z,75.38
2017-09-24T07:34:44.165Z,75.29
2017-09-24T07:35:54.518Z,75.67
2017-09-24T07:37:04.246Z,75.57
2017-09-24T07:38:14.599Z,75.29
2017-09-24T07:39:25.002Z,75.48
2017-09-24T07:40:35.040Z,75.29
2017-09-24T07:41:45.396Z,75.2
2017-09-24T07:42:55.736Z,74.62
2017-09-24T07:44:05.751Z,74.71
2017-09-24T07:45:16.159Z,74.81
2017-09-24T07:46:26.506Z,74.62
2017-09-24T07:47:36.879Z,74.37
2017-09-24T07:48:47.237Z,74.65
2017-09-24T07:49:57.278Z,74.85
2017-09-24T07:51:07.383Z,74.94
2017-09-24T07:52:17.421Z,74.37
2017-09-24T07:53:27.455Z,74.27
2017-09-24T07:54:37.821Z,74.17
2017-09-24T07:55:48.178Z,74.02
2017-09-24T07:56:58.210Z,74.21
2017-09-24T07:58:08.267Z,73.63
2017-09-24T07:59:18.618Z,73.63
2017-09-24T08:00:28.651Z,73.92
2017-09-24T08:01:38.997Z,73.83
2017-09-24T08:02:49.342Z,73.86
2017-09-24T08:03:59.702Z,73.86
2017-09-24T08:05:09.424Z,73.57
2017-09-24T08:06:19.786Z,73.09
2017-09-24T08:07:30.136Z,73.42
2017-09-24T08:08:39.887Z,73.61
2017-09-24T08:09:49.923Z,73.61
2017-09-24T08:10:59.954Z,73.61
2017-09-24T08:12:10.314Z,72.97
2017-09-24T08:13:20.345Z,73.07
2017-09-24T08:14:30.379Z,73.16
2017-09-24T08:15:40.735Z,73.07
2017-09-24T08:16:51.077Z,72.97
2017-09-24T08:18:01.105Z,72.97
2017-09-24T08:19:11.491Z,73.16
2017-09-24T08:20:21.594Z,73.3
2017-09-24T08:21:31.927Z,73.2
2017-09-24T08:22:42.264Z,73.3
2017-09-24T08:23:52.611Z,73.2
2017-09-24T08:25:02.957Z,73.39
2017-09-24T08:26:13.303Z,73.43
2017-09-24T08:27:23.650Z,73.43
2017-09-24T08:28:34.008Z,73.33
2017-09-24T08:29:44.038Z,73.33
2017-09-24T08:30:54.392Z,73.33
2017-09-24T08:32:04.417Z,73.33
2017-09-24T08:33:14.805Z,73.24
2017-09-24T08:34:25.171Z,73.33
2017-09-24T08:35:35.197Z,73.24
2017-09-24T08:36:45.561Z,73.14
2017-09-24T08:37:55.911Z,73.24
2017-09-24T08:39:05.941Z,73.27
2017-09-24T08:40:16.303Z,73.24
2017-09-24T08:41:26.658Z,73.33
2017-09-24T08:42:37.009Z,73.95
2017-09-24T08:43:47.405Z,73.82
2017-09-24T08:44:57.752Z,73.62
2017-09-24T08:46:07.468Z,73.91
2017-09-24T08:47:17.494Z,73.82
2017-09-24T08:48:27.954Z,74.01
2017-09-24T08:49:38.489Z,73.78
2017-09-24T08:50:48.836Z,73.72
2017-09-24T08:51:59.203Z,74.2
2017-09-24T08:53:09.591Z,74.01
2017-09-24T08:54:19.950Z,73.24
2017-09-24T08:55:30.072Z,73.62
2017-09-24T08:56:40.104Z,73.53
2017-09-24T08:57:50.470Z,73.72
2017-09-24T08:59:00.503Z,73.91
2017-09-24T09:00:10.565Z,73.82
2017-09-24T09:01:20.651Z,73.91
2017-09-24T09:02:31.127Z,73.43
2017-09-24T09:03:42.740Z,73.53
2017-09-24T09:04:52.870Z,73.24
2017-09-24T09:06:03.290Z,73.82
2017-09-24T09:07:13.662Z,74.1
2017-09-24T09:08:24.281Z,74.1
2017-09-24T09:09:34.627Z,74.01
2017-09-24T09:10:44.987Z,74.01
2017-09-24T09:11:55.342Z,74.4
2017-09-24T09:13:06.325Z,74.36
2017-09-24T09:14:16.576Z,74.16
2017-09-24T09:15:27.586Z,74.26
2017-09-24T09:16:37.969Z,74.74
2017-09-24T09:17:48.734Z,74.74
2017-09-24T09:18:59.124Z,74.65
2017-09-24T09:20:09.500Z,74.45
2017-09-24T09:21:19.550Z,74.93
2017-09-24T09:22:29.927Z,74.45
2017-09-24T09:23:40.271Z,74.45
2017-09-24T09:24:50.717Z,74.36
2017-09-24T09:26:01.108Z,74.26
2017-09-24T09:27:11.506Z,73.78
2017-09-24T09:28:21.888Z,73.88
2017-09-24T09:29:32.260Z,73.97
2017-09-24T09:30:42.621Z,73.24
2017-09-24T09:31:52.648Z,73.91
2017-09-24T09:33:03.012Z,73.43
2017-09-24T09:34:13.372Z,73.27
2017-09-24T09:35:23.746Z,72.89
2017-09-24T09:36:34.116Z,72.73
2017-09-24T09:37:44.485Z,72.73
2017-09-24T09:38:54.558Z,72.44
2017-09-24T09:40:04.622Z,72.34
2017-09-24T09:41:14.977Z,72.38
2017-09-24T09:42:25.374Z,72.44
2017-09-24T09:43:35.732Z,72.28
2017-09-24T09:44:46.087Z,72.28
2017-09-24T09:45:56.446Z,72.28
2017-09-24T09:47:06.806Z,72.19
2017-09-24T09:48:17.179Z,72.67
2017-09-24T09:49:27.549Z,72.67
2017-09-24T09:50:37.892Z,72.48
2017-09-24T09:51:48.280Z,72.38
2017-09-24T09:52:58.635Z,71.94
2017-09-24T09:54:08.338Z,72.22
2017-09-24T09:55:18.700Z,71.58
2017-09-24T09:56:29.069Z,71.88
2017-09-24T09:57:39.434Z,71.78
2017-09-24T09:58:49.806Z,72.26
2017-09-24T10:00:00.261Z,72.16
2017-09-24T10:01:10.764Z,72.36
2017-09-24T10:02:21.121Z,72.9
2017-09-24T10:03:31.167Z,73.09
2017-09-24T10:04:41.532Z,73.25
2017-09-24T10:05:51.638Z,73.63
2017-09-24T10:07:01.693Z,73.25
2017-09-24T10:08:12.078Z,73.83
2017-09-24T10:09:22.119Z,74.02
2017-09-24T10:10:32.487Z,73.6
2017-09-24T10:11:42.518Z,73.21
2017-09-24T10:12:52.873Z,73.79
2017-09-24T10:14:02.896Z,73.99
2017-09-24T10:15:13.250Z,73.85
2017-09-24T10:16:23.431Z,73.75
2017-09-24T10:17:33.483Z,74.05
2017-09-24T10:18:43.846Z,73.75
2017-09-24T10:19:54.200Z,74.33
2017-09-24T10:21:04.247Z,74.4
2017-09-24T10:22:14.607Z,74.1
2017-09-24T10:23:24.967Z,74.2
2017-09-24T10:24:35.012Z,74.2
2017-09-24T10:25:45.056Z,74.49
2017-09-24T10:26:55.413Z,74.3
2017-09-24T10:28:05.771Z,73.82
2017-09-24T10:29:16.136Z,73.72
2017-09-24T10:30:26.181Z,73.72
2017-09-24T10:31:36.540Z,73.82
2017-09-24T10:32:46.906Z,73.62
2017-09-24T10:33:57.256Z,74.1
2017-09-24T10:35:07.308Z,74.01
2017-09-24T10:36:17.358Z,74.01
2017-09-24T10:37:27.712Z,73.08
2017-09-24T10:38:38.074Z,73.37
2017-09-24T10:39:48.123Z,73.95
2017-09-24T10:40:58.219Z,73.75
2017-09-24T10:42:08.579Z,73.11
2017-09-24T10:43:18.934Z,73.18
2017-09-24T10:44:29.273Z,73.41
2017-09-24T10:45:39.629Z,73.6
2017-09-24T10:46:49.679Z,73.21
2017-09-24T10:48:00.028Z,73.25
2017-09-24T10:49:10.445Z,73.06
2017-09-24T10:50:20.465Z,72.58
2017-09-24T10:51:30.501Z,73.15
2017-09-24T10:52:40.550Z,73
2017-09-24T10:53:50.909Z,72.9
2017-09-24T10:55:01.280Z,72.61
2017-09-24T10:56:11.642Z,72.42
2017-09-24T10:57:21.992Z,72.42
2017-09-24T10:58:32.353Z,72.52
2017-09-24T10:59:42.716Z,72.45
2017-09-24T11:00:53.097Z,72.45
2017-09-24T11:02:03.473Z,72.55
2017-09-24T11:03:13.820Z,73.03
2017-09-24T11:04:24.162Z,72.94
2017-09-24T11:05:34.524Z,72.94
2017-09-24T11:06:44.927Z,72.64
2017-09-24T11:07:54.965Z,72.94
2017-09-24T11:09:05.000Z,72.94
2017-09-24T11:10:15.027Z,72.74
2017-09-24T11:11:25.121Z,72.94
2017-09-24T11:12:34.831Z,73.42
2017-09-24T11:13:45.201Z,73.13
2017-09-24T11:14:55.561Z,73.22
2017-09-24T11:16:05.906Z,73.13
2017-09-24T11:17:16.264Z,73.03
2017-09-24T11:18:26.607Z,73.13
2017-09-24T11:19:36.952Z,73.13
2017-09-24T11:20:47.304Z,72.84
2017-09-24T11:21:57.684Z,73.13
2017-09-24T11:23:07.431Z,72.94
2017-09-24T11:24:17.219Z,73.32
2017-09-24T11:25:27.569Z,72.94
2017-09-24T11:26:37.615Z,72.88
2017-09-24T11:27:47.688Z,72.68
2017-09-24T11:28:58.049Z,73.16
2017-09-24T11:30:07.833Z,73.16
2017-09-24T11:31:18.193Z,73.07
2017-09-24T11:32:28.229Z,72.97
2017-09-24T11:33:38.271Z,72.97
2017-09-24T11:34:48.319Z,72.97
2017-09-24T11:35:58.690Z,72.88
2017-09-24T11:37:08.724Z,73.07
2017-09-24T11:38:19.083Z,73.36
2017-09-24T11:39:29.447Z,72.78
2017-09-24T11:40:39.798Z,72.78
2017-09-24T11:41:49.581Z,72.97
2017-09-24T11:42:59.939Z,72.97
2017-09-24T11:44:10.020Z,73.16
2017-09-24T11:45:20.397Z,73.3
2017-09-24T11:46:30.456Z,73.1
2017-09-24T11:47:40.819Z,72.72
2017-09-24T11:48:50.855Z,73.2
2017-09-24T11:50:01.217Z,72.81
2017-09-24T11:51:11.574Z,73.26
2017-09-24T11:52:21.940Z,73.55
2017-09-24T11:53:32.342Z,73.65
2017-09-24T11:54:42.384Z,73.52
2017-09-24T11:55:52.785Z,74
2017-09-24T11:57:03.146Z,73.8
2017-09-24T11:58:13.514Z,74
2017-09-24T11:59:23.886Z,73.22
2017-09-24T12:00:34.231Z,74.1
2017-09-24T12:01:44.602Z,73.9
2017-09-24T12:02:54.661Z,74.29
2017-09-24T12:04:05.045Z,74.19
2017-09-24T12:05:15.406Z,73.9
2017-09-24T12:06:25.453Z,73.32
2017-09-24T12:07:35.492Z,74
2017-09-24T12:08:45.841Z,73.8
2017-09-24T12:09:56.206Z,73.9
2017-09-24T12:11:06.547Z,73.71
2017-09-24T12:12:16.885Z,74.38
2017-09-24T12:13:26.973Z,74
2017-09-24T12:14:37.327Z,74.16
2017-09-24T12:15:47.385Z,74.06
2017-09-24T12:16:57.784Z,73.71
2017-09-24T12:18:08.123Z,73.52
2017-09-24T12:19:18.155Z,72.68
2017-09-24T12:20:28.682Z,73.07
2017-09-24T12:21:39.047Z,72.97
2017-09-24T12:22:49.464Z,72.39
2017-09-24T12:23:59.822Z,72.68
2017-09-24T12:25:10.200Z,72.33
2017-09-24T12:26:20.571Z,72.04
2017-09-24T12:27:30.930Z,72.04
2017-09-24T12:28:40.983Z,72.27
2017-09-24T12:29:51.039Z,71.88
2017-09-24T12:31:01.404Z,72.36
2017-09-24T12:32:11.747Z,73.04
2017-09-24T12:33:22.107Z,72.56
2017-09-24T12:34:32.131Z,72.36
2017-09-24T12:35:42.496Z,73.14
2017-09-24T12:36:52.545Z,73.04
2017-09-24T12:38:02.895Z,73.2
2017-09-24T12:39:12.924Z,73.97
2017-09-24T12:40:23.332Z,73.26
2017-09-24T12:41:33.690Z,74.23
2017-09-24T12:42:43.746Z,73.8
2017-09-24T12:43:54.106Z,74.58
2017-09-24T12:45:04.361Z,74.77
2017-09-24T12:46:14.110Z,74.73
2017-09-24T12:47:24.477Z,76.18
2017-09-24T12:48:34.846Z,75.37
2017-09-24T12:49:45.234Z,75.85
2017-09-24T12:50:55.604Z,76.2
2017-09-24T12:52:06.006Z,76.1
2017-09-24T12:59:51.245Z,75.88
2017-09-24T13:01:03.546Z,76.17
2017-09-24T13:02:13.895Z,76.03
2017-09-24T13:03:24.260Z,75.84
2017-09-24T13:04:34.300Z,76.13
2017-09-24T13:05:44.704Z,75.99
2017-09-24T13:06:55.059Z,75.99
2017-09-24T13:08:05.120Z,76.18
2017-09-24T13:09:15.478Z,75.8
2017-09-24T13:10:25.584Z,76.18
2017-09-24T13:11:35.936Z,76.09
2017-09-24T13:12:46.323Z,75.51
2017-09-24T13:13:56.706Z,75.61
2017-09-24T13:15:06.752Z,75.42
2017-09-24T13:16:17.164Z,75.51
2017-09-24T13:17:27.210Z,75.61
2017-09-24T13:18:37.567Z,75.42
2017-09-24T13:19:47.939Z,74.93
2017-09-24T13:20:58.301Z,75.13
2017-09-24T13:22:08.714Z,74.45
2017-09-24T13:23:19.079Z,75.03
2017-09-24T13:24:29.113Z,74.84
2017-09-24T13:25:39.480Z,74.74
2017-09-24T13:26:49.858Z,74.55
2017-09-24T13:28:00.216Z,74.74
2017-09-24T13:29:10.580Z,74.99
2017-09-24T13:30:20.966Z,75.57
2017-09-24T13:31:31.006Z,75.28
2017-09-24T13:32:41.382Z,75.48
2017-09-24T13:33:51.800Z,75.38
2017-09-24T13:35:02.161Z,75.54
2017-09-24T13:36:12.226Z,75.54
2017-09-24T13:37:22.601Z,75.73
2017-09-24T13:38:32.962Z,75.82
2017-09-24T13:39:43.043Z,76.01
2017-09-24T13:40:53.404Z,76.01
2017-09-24T13:42:03.789Z,76.01
2017-09-24T13:43:13.838Z,75.73
2017-09-24T13:44:24.207Z,75.82
2017-09-24T13:45:34.737Z,76.01
2017-09-24T13:46:45.149Z,75.44
2017-09-24T13:47:55.521Z,75.63
2017-09-24T13:49:05.923Z,75.63
2017-09-24T13:50:15.990Z,75.44
2017-09-24T13:51:26.364Z,75.44
2017-09-24T13:52:36.748Z,75.24
2017-09-24T13:53:47.164Z,75.44
2017-09-24T13:54:57.561Z,75.24
2017-09-24T13:56:07.938Z,75.63
2017-09-24T13:57:17.994Z,75.34
2017-09-24T13:58:28.382Z,75.54
2017-09-24T13:59:38.747Z,75.54
2017-09-24T14:00:49.103Z,75.24
2017-09-24T14:01:59.142Z,75.24
2017-09-24T14:03:09.272Z,75.54
2017-09-24T14:04:19.629Z,75.63
2017-09-24T14:05:29.734Z,75.44
2017-09-24T14:06:39.789Z,75.63
2017-09-24T14:07:50.142Z,75.63
2017-09-24T14:09:00.537Z,75.82
2017-09-24T14:10:10.603Z,76.01
2017-09-24T14:11:20.999Z,75.73
2017-09-24T14:12:31.383Z,76.01
2017-09-24T14:13:41.443Z,75.92
2017-09-24T14:14:51.790Z,75.59
2017-09-24T14:16:02.166Z,76.01
2017-09-24T14:17:12.540Z,75.98
2017-09-24T14:18:22.898Z,75.92
2017-09-24T14:19:33.275Z,75.73
2017-09-24T14:20:43.691Z,76.01
2017-09-24T14:21:53.448Z,75.92
2017-09-24T14:23:03.503Z,76.11
2017-09-24T14:24:13.880Z,75.73
2017-09-24T14:25:24.223Z,76.01
2017-09-24T14:26:33.965Z,76.11
2017-09-24T14:27:44.427Z,75.92
2017-09-24T14:28:54.779Z,75.63
2017-09-24T14:30:05.155Z,75.54
2017-09-24T14:31:15.544Z,75.63
2017-09-24T14:32:25.985Z,76.01
2017-09-24T14:33:36.677Z,75.98
2017-09-24T14:34:46.739Z,75.79
2017-09-24T14:35:56.779Z,75.88
2017-09-24T14:37:07.171Z,75.88
2017-09-24T14:38:17.644Z,75.88
2017-09-24T14:39:28.003Z,75.79
2017-09-24T14:40:38.364Z,75.79
2017-09-24T14:41:48.721Z,75.88
2017-09-24T14:42:59.189Z,75.98
2017-09-24T14:44:09.607Z,75.98
2017-09-24T14:45:19.663Z,75.59
2017-09-24T14:46:30.046Z,75.44
2017-09-24T14:47:40.098Z,75.4
2017-09-24T14:48:50.145Z,75.4
2017-09-24T14:50:00.578Z,75.44
2017-09-24T14:51:10.985Z,75.54
2017-09-24T14:52:21.353Z,75.54
2017-09-24T14:53:31.400Z,75.63
2017-09-24T14:54:41.441Z,75.54
2017-09-24T14:55:51.860Z,75.73
2017-09-24T14:57:02.266Z,75.54
2017-09-24T14:58:12.632Z,75.54
2017-09-24T14:59:23.022Z,75.63
2017-09-24T15:00:32.753Z,75.63
2017-09-24T15:01:42.863Z,75.63
2017-09-24T15:02:53.220Z,75.63
2017-09-24T15:04:03.286Z,75.63
2017-09-24T15:05:13.648Z,75.54
2017-09-24T15:06:23.687Z,75.63
2017-09-24T15:07:34.092Z,75.63
2017-09-24T15:08:44.465Z,75.44
2017-09-24T15:09:54.824Z,75.34
2017-09-24T15:11:04.866Z,75.92
2017-09-24T15:12:14.906Z,76.11
2017-09-24T15:13:25.533Z,75.92
2017-09-24T15:14:35.569Z,75.73
2017-09-24T15:15:45.941Z,75.98
2017-09-24T15:16:56.338Z,76.01
2017-09-24T15:18:06.395Z,76.07
2017-09-24T15:19:16.846Z,76.17
2017-09-24T15:20:27.359Z,75.92
2017-09-24T15:21:37.716Z,76.21
2017-09-24T15:22:48.063Z,76.07
2017-09-24T15:23:58.121Z,76.07
2017-09-24T15:25:08.468Z,75.98
2017-09-24T15:26:18.840Z,75.98
2017-09-24T15:27:28.634Z,75.98
2017-09-24T15:28:39.017Z,76.26
2017-09-24T15:29:49.387Z,76.17
2017-09-24T15:30:59.833Z,76.07
2017-09-24T15:32:10.245Z,76.17
2017-09-24T15:33:20.326Z,76.26
2017-09-24T15:34:30.704Z,75.88
2017-09-24T15:35:40.762Z,76.26
2017-09-24T15:36:51.192Z,76.17
2017-09-24T15:38:01.563Z,76.17
2017-09-24T15:39:11.940Z,75.98
2017-09-24T15:40:22.340Z,75.69
2017-09-24T15:41:32.363Z,76.26
2017-09-24T15:42:42.087Z,76.26
2017-09-24T15:43:52.445Z,76.07
2017-09-24T15:45:02.818Z,76.26
2017-09-24T15:46:13.208Z,75.98